sensor_id;sensor_type;location;lat;lon;timestamp;P1;durP1;ratioP1;P2;durP2;ratioP2
57225;SDS011;43082;43.568;22.256;2022-10-22T00:01:36;35.92;;;21.25;;
57225;SDS011;43082;43.568;22.256;2022-10-22T00:04:03;25.98;;;16.92;;
57225;SDS011;43082;43.568;22.256;2022-10-22T00:06:28;43.88;;;25.42;;
57225;SDS011;43082;43.568;22.256;2022-10-22T00:08:54;19.70;;;13.88;;
57225;SDS011;43082;43.568;22.256;2022-10-22T00:11:20;35.05;;;21.63;;
57225;SDS011;43082;43.568;22.256;2022-10-22T00:13:45;36.42;;;22.02;;
57225;SDS011;43082;43.568;22.256;2022-10-22T00:16:11;38.58;;;20.35;;
57225;SDS011;43082;43.568;22.256;2022-10-22T00:18:37;34.97;;;21.13;;
57225;SDS011;43082;43.568;22.256;2022-10-22T00:21:03;33.08;;;19.13;;
57225;SDS011;43082;43.568;22.256;2022-10-22T00:23:30;21.15;;;13.07;;
57225;SDS011;43082;43.568;22.256;2022-10-22T00:25:55;26.05;;;15.48;;
57225;SDS011;43082;43.568;22.256;2022-10-22T00:28:21;30.02;;;16.02;;
57225;SDS011;43082;43.568;22.256;2022-10-22T00:30:46;28.52;;;15.63;;
57225;SDS011;43082;43.568;22.256;2022-10-22T00:33:12;27.27;;;15.13;;
57225;SDS011;43082;43.568;22.256;2022-10-22T00:35:37;22.55;;;14.75;;
57225;SDS011;43082;43.568;22.256;2022-10-22T00:38:03;25.17;;;15.13;;
57225;SDS011;43082;43.568;22.256;2022-10-22T00:40:28;33.58;;;20.95;;
57225;SDS011;43082;43.568;22.256;2022-10-22T00:42:54;30.92;;;18.90;;
57225;SDS011;43082;43.568;22.256;2022-10-22T00:45:26;26.13;;;14.43;;
57225;SDS011;43082;43.568;22.256;2022-10-22T00:48:05;22.88;;;13.35;;
57225;SDS011;43082;43.568;22.256;2022-10-22T00:50:34;21.80;;;13.45;;
57225;SDS011;43082;43.568;22.256;2022-10-22T00:53:16;22.05;;;13.02;;
57225;SDS011;43082;43.568;22.256;2022-10-22T00:55:44;22.75;;;13.55;;
57225;SDS011;43082;43.568;22.256;2022-10-22T00:58:11;22.42;;;13.05;;
57225;SDS011;43082;43.568;22.256;2022-10-22T01:00:37;20.50;;;12.70;;
57225;SDS011;43082;43.568;22.256;2022-10-22T01:03:03;20.05;;;12.07;;
57225;SDS011;43082;43.568;22.256;2022-10-22T01:05:30;19.17;;;11.35;;
57225;SDS011;43082;43.568;22.256;2022-10-22T01:07:57;17.42;;;10.45;;
57225;SDS011;43082;43.568;22.256;2022-10-22T01:31:34;32.75;;;19.80;;
57225;SDS011;43082;43.568;22.256;2022-10-22T01:34:04;30.83;;;20.08;;
57225;SDS011;43082;43.568;22.256;2022-10-22T01:36:30;32.03;;;20.88;;
57225;SDS011;43082;43.568;22.256;2022-10-22T01:38:57;32.50;;;20.35;;
57225;SDS011;43082;43.568;22.256;2022-10-22T01:41:23;38.08;;;24.40;;
57225;SDS011;43082;43.568;22.256;2022-10-22T01:43:48;36.65;;;22.63;;
57225;SDS011;43082;43.568;22.256;2022-10-22T01:46:21;33.33;;;19.67;;
57225;SDS011;43082;43.568;22.256;2022-10-22T01:54:13;22.23;;;11.90;;
57225;SDS011;43082;43.568;22.256;2022-10-22T01:56:50;20.70;;;11.50;;
57225;SDS011;43082;43.568;22.256;2022-10-22T02:08:04;14.05;;;8.48;;
57225;SDS011;43082;43.568;22.256;2022-10-22T02:10:34;18.77;;;10.15;;
57225;SDS011;43082;43.568;22.256;2022-10-22T02:13:01;20.50;;;12.23;;
57225;SDS011;43082;43.568;22.256;2022-10-22T02:15:27;19.15;;;12.48;;
57225;SDS011;43082;43.568;22.256;2022-10-22T02:17:54;21.30;;;12.15;;
57225;SDS011;43082;43.568;22.256;2022-10-22T02:20:26;18.02;;;10.75;;
57225;SDS011;43082;43.568;22.256;2022-10-22T02:23:01;18.23;;;10.68;;
57225;SDS011;43082;43.568;22.256;2022-10-22T02:25:28;17.38;;;9.82;;
57225;SDS011;43082;43.568;22.256;2022-10-22T02:30:52;11.10;;;7.22;;
57225;SDS011;43082;43.568;22.256;2022-10-22T02:33:21;17.70;;;8.82;;
57225;SDS011;43082;43.568;22.256;2022-10-22T02:35:50;16.33;;;8.45;;
57225;SDS011;43082;43.568;22.256;2022-10-22T02:38:16;15.15;;;8.07;;
57225;SDS011;43082;43.568;22.256;2022-10-22T02:40:42;12.85;;;7.35;;
57225;SDS011;43082;43.568;22.256;2022-10-22T02:43:07;13.57;;;7.10;;
57225;SDS011;43082;43.568;22.256;2022-10-22T02:45:33;13.10;;;7.68;;
57225;SDS011;43082;43.568;22.256;2022-10-22T02:47:59;12.65;;;7.68;;
57225;SDS011;43082;43.568;22.256;2022-10-22T02:50:25;15.55;;;7.93;;
57225;SDS011;43082;43.568;22.256;2022-10-22T02:52:51;15.65;;;8.43;;
57225;SDS011;43082;43.568;22.256;2022-10-22T02:55:16;14.90;;;8.55;;
57225;SDS011;43082;43.568;22.256;2022-10-22T02:57:42;15.15;;;8.40;;
57225;SDS011;43082;43.568;22.256;2022-10-22T03:00:07;15.65;;;9.32;;
57225;SDS011;43082;43.568;22.256;2022-10-22T03:02:34;20.23;;;11.30;;
57225;SDS011;43082;43.568;22.256;2022-10-22T03:04:59;17.73;;;11.48;;
57225;SDS011;43082;43.568;22.256;2022-10-22T03:07:25;18.83;;;11.55;;
57225;SDS011;43082;43.568;22.256;2022-10-22T03:09:50;20.80;;;12.18;;
57225;SDS011;43082;43.568;22.256;2022-10-22T03:12:16;15.98;;;10.98;;
57225;SDS011;43082;43.568;22.256;2022-10-22T03:14:41;17.50;;;11.18;;
57225;SDS011;43082;43.568;22.256;2022-10-22T03:17:07;18.58;;;10.90;;
57225;SDS011;43082;43.568;22.256;2022-10-22T03:19:33;17.55;;;9.63;;
57225;SDS011;43082;43.568;22.256;2022-10-22T03:22:02;17.27;;;10.40;;
57225;SDS011;43082;43.568;22.256;2022-10-22T03:24:35;15.93;;;9.45;;
57225;SDS011;43082;43.568;22.256;2022-10-22T03:29:30;16.27;;;10.98;;
57225;SDS011;43082;43.568;22.256;2022-10-22T03:31:58;18.08;;;11.85;;
57225;SDS011;43082;43.568;22.256;2022-10-22T03:34:23;27.02;;;16.55;;
57225;SDS011;43082;43.568;22.256;2022-10-22T03:36:49;25.08;;;15.18;;
57225;SDS011;43082;43.568;22.256;2022-10-22T03:39:15;18.77;;;12.63;;
57225;SDS011;43082;43.568;22.256;2022-10-22T03:41:42;19.52;;;11.57;;
57225;SDS011;43082;43.568;22.256;2022-10-22T03:44:08;17.33;;;11.70;;
57225;SDS011;43082;43.568;22.256;2022-10-22T03:46:34;18.52;;;11.63;;
57225;SDS011;43082;43.568;22.256;2022-10-22T03:48:59;18.95;;;11.40;;
57225;SDS011;43082;43.568;22.256;2022-10-22T03:51:25;17.80;;;11.68;;
57225;SDS011;43082;43.568;22.256;2022-10-22T03:53:51;19.05;;;11.95;;
57225;SDS011;43082;43.568;22.256;2022-10-22T03:56:17;17.73;;;11.95;;
57225;SDS011;43082;43.568;22.256;2022-10-22T03:58:42;17.35;;;11.35;;
57225;SDS011;43082;43.568;22.256;2022-10-22T04:01:08;18.35;;;11.32;;
57225;SDS011;43082;43.568;22.256;2022-10-22T04:03:35;20.05;;;12.35;;
57225;SDS011;43082;43.568;22.256;2022-10-22T04:06:06;21.15;;;13.35;;
57225;SDS011;43082;43.568;22.256;2022-10-22T04:08:33;23.10;;;14.85;;
57225;SDS011;43082;43.568;22.256;2022-10-22T04:10:58;26.33;;;16.73;;
57225;SDS011;43082;43.568;22.256;2022-10-22T04:13:24;28.58;;;16.77;;
57225;SDS011;43082;43.568;22.256;2022-10-22T04:15:50;26.58;;;18.15;;
57225;SDS011;43082;43.568;22.256;2022-10-22T04:18:19;27.42;;;16.30;;
57225;SDS011;43082;43.568;22.256;2022-10-22T04:20:45;31.95;;;17.48;;
57225;SDS011;43082;43.568;22.256;2022-10-22T04:23:11;24.40;;;14.60;;
57225;SDS011;43082;43.568;22.256;2022-10-22T04:25:37;24.65;;;14.20;;
57225;SDS011;43082;43.568;22.256;2022-10-22T04:28:05;25.60;;;14.23;;
57225;SDS011;43082;43.568;22.256;2022-10-22T04:30:32;20.27;;;12.00;;
57225;SDS011;43082;43.568;22.256;2022-10-22T04:32:57;21.73;;;13.40;;
57225;SDS011;43082;43.568;22.256;2022-10-22T04:35:22;28.48;;;19.60;;
57225;SDS011;43082;43.568;22.256;2022-10-22T04:37:48;29.00;;;16.65;;
57225;SDS011;43082;43.568;22.256;2022-10-22T04:40:13;28.17;;;17.40;;
57225;SDS011;43082;43.568;22.256;2022-10-22T04:42:39;24.48;;;17.67;;
57225;SDS011;43082;43.568;22.256;2022-10-22T04:45:04;24.05;;;17.00;;
57225;SDS011;43082;43.568;22.256;2022-10-22T04:47:30;24.75;;;16.30;;
57225;SDS011;43082;43.568;22.256;2022-10-22T04:49:55;26.50;;;16.98;;
57225;SDS011;43082;43.568;22.256;2022-10-22T04:52:21;25.98;;;16.25;;
57225;SDS011;43082;43.568;22.256;2022-10-22T04:54:46;23.95;;;15.52;;
57225;SDS011;43082;43.568;22.256;2022-10-22T04:57:12;26.50;;;15.93;;
57225;SDS011;43082;43.568;22.256;2022-10-22T04:59:38;35.97;;;18.83;;
57225;SDS011;43082;43.568;22.256;2022-10-22T05:02:04;22.50;;;15.40;;
57225;SDS011;43082;43.568;22.256;2022-10-22T05:04:29;26.38;;;15.63;;
57225;SDS011;43082;43.568;22.256;2022-10-22T05:06:55;36.65;;;26.88;;
57225;SDS011;43082;43.568;22.256;2022-10-22T05:09:20;26.40;;;15.82;;
57225;SDS011;43082;43.568;22.256;2022-10-22T05:11:46;21.55;;;14.32;;
57225;SDS011;43082;43.568;22.256;2022-10-22T05:14:14;25.15;;;16.88;;
57225;SDS011;43082;43.568;22.256;2022-10-22T05:16:44;25.35;;;16.50;;
57225;SDS011;43082;43.568;22.256;2022-10-22T05:19:33;25.63;;;19.48;;
57225;SDS011;43082;43.568;22.256;2022-10-22T05:21:58;22.30;;;16.17;;
57225;SDS011;43082;43.568;22.256;2022-10-22T05:24:25;24.35;;;15.45;;
57225;SDS011;43082;43.568;22.256;2022-10-22T05:26:51;27.98;;;17.90;;
57225;SDS011;43082;43.568;22.256;2022-10-22T05:29:18;30.48;;;18.98;;
57225;SDS011;43082;43.568;22.256;2022-10-22T05:31:43;32.47;;;22.38;;
57225;SDS011;43082;43.568;22.256;2022-10-22T05:34:09;41.50;;;29.85;;
57225;SDS011;43082;43.568;22.256;2022-10-22T05:36:34;38.75;;;28.17;;
57225;SDS011;43082;43.568;22.256;2022-10-22T05:39:00;35.25;;;24.50;;
57225;SDS011;43082;43.568;22.256;2022-10-22T05:41:26;35.72;;;23.17;;
57225;SDS011;43082;43.568;22.256;2022-10-22T05:43:56;31.13;;;21.58;;
57225;SDS011;43082;43.568;22.256;2022-10-22T05:46:23;28.42;;;19.33;;
57225;SDS011;43082;43.568;22.256;2022-10-22T05:48:50;20.90;;;15.55;;
57225;SDS011;43082;43.568;22.256;2022-10-22T05:51:20;24.35;;;17.75;;
57225;SDS011;43082;43.568;22.256;2022-10-22T05:53:49;22.85;;;16.13;;
57225;SDS011;43082;43.568;22.256;2022-10-22T05:56:25;28.67;;;14.93;;
57225;SDS011;43082;43.568;22.256;2022-10-22T05:58:52;25.27;;;15.85;;
57225;SDS011;43082;43.568;22.256;2022-10-22T06:01:21;26.88;;;18.00;;
57225;SDS011;43082;43.568;22.256;2022-10-22T06:03:48;32.08;;;22.88;;
57225;SDS011;43082;43.568;22.256;2022-10-22T06:08:46;43.63;;;28.73;;
57225;SDS011;43082;43.568;22.256;2022-10-22T06:11:13;30.83;;;19.90;;
57225;SDS011;43082;43.568;22.256;2022-10-22T06:13:38;28.60;;;19.90;;
57225;SDS011;43082;43.568;22.256;2022-10-22T06:16:04;29.27;;;20.42;;
57225;SDS011;43082;43.568;22.256;2022-10-22T06:18:29;32.35;;;21.65;;
57225;SDS011;43082;43.568;22.256;2022-10-22T06:20:55;24.55;;;16.48;;
57225;SDS011;43082;43.568;22.256;2022-10-22T06:23:20;19.92;;;13.57;;
57225;SDS011;43082;43.568;22.256;2022-10-22T06:25:54;23.92;;;16.73;;
57225;SDS011;43082;43.568;22.256;2022-10-22T06:28:20;24.83;;;16.33;;
57225;SDS011;43082;43.568;22.256;2022-10-22T06:30:46;82.88;;;54.03;;
57225;SDS011;43082;43.568;22.256;2022-10-22T06:33:11;132.82;;;85.22;;
57225;SDS011;43082;43.568;22.256;2022-10-22T06:35:37;60.10;;;39.47;;
57225;SDS011;43082;43.568;22.256;2022-10-22T06:38:02;57.65;;;37.42;;
57225;SDS011;43082;43.568;22.256;2022-10-22T06:40:28;40.90;;;26.98;;
57225;SDS011;43082;43.568;22.256;2022-10-22T06:42:53;51.20;;;34.03;;
57225;SDS011;43082;43.568;22.256;2022-10-22T06:45:18;41.83;;;27.38;;
57225;SDS011;43082;43.568;22.256;2022-10-22T06:47:44;39.65;;;26.85;;
57225;SDS011;43082;43.568;22.256;2022-10-22T06:50:10;51.05;;;33.60;;
57225;SDS011;43082;43.568;22.256;2022-10-22T06:52:36;53.42;;;34.78;;
57225;SDS011;43082;43.568;22.256;2022-10-22T06:55:01;47.63;;;33.08;;
57225;SDS011;43082;43.568;22.256;2022-10-22T06:57:27;42.47;;;29.33;;
57225;SDS011;43082;43.568;22.256;2022-10-22T06:59:54;33.60;;;24.38;;
57225;SDS011;43082;43.568;22.256;2022-10-22T07:02:19;32.05;;;20.83;;
57225;SDS011;43082;43.568;22.256;2022-10-22T07:04:45;27.98;;;21.80;;
57225;SDS011;43082;43.568;22.256;2022-10-22T07:07:10;34.53;;;23.25;;
57225;SDS011;43082;43.568;22.256;2022-10-22T07:09:36;33.50;;;22.98;;
57225;SDS011;43082;43.568;22.256;2022-10-22T07:12:03;40.78;;;28.38;;
57225;SDS011;43082;43.568;22.256;2022-10-22T07:14:29;36.78;;;26.83;;
57225;SDS011;43082;43.568;22.256;2022-10-22T07:16:54;41.15;;;27.15;;
57225;SDS011;43082;43.568;22.256;2022-10-22T07:19:19;44.67;;;30.25;;
57225;SDS011;43082;43.568;22.256;2022-10-22T07:21:45;56.85;;;35.72;;
57225;SDS011;43082;43.568;22.256;2022-10-22T07:24:10;60.17;;;41.42;;
57225;SDS011;43082;43.568;22.256;2022-10-22T07:26:36;60.63;;;44.15;;
57225;SDS011;43082;43.568;22.256;2022-10-22T07:29:02;58.50;;;39.40;;
57225;SDS011;43082;43.568;22.256;2022-10-22T07:31:28;52.28;;;34.55;;
57225;SDS011;43082;43.568;22.256;2022-10-22T07:33:53;48.83;;;33.60;;
57225;SDS011;43082;43.568;22.256;2022-10-22T07:36:19;46.65;;;31.65;;
57225;SDS011;43082;43.568;22.256;2022-10-22T07:38:45;53.17;;;33.00;;
57225;SDS011;43082;43.568;22.256;2022-10-22T07:41:14;41.28;;;29.73;;
57225;SDS011;43082;43.568;22.256;2022-10-22T07:43:40;39.95;;;27.52;;
57225;SDS011;43082;43.568;22.256;2022-10-22T07:46:06;43.80;;;29.80;;
57225;SDS011;43082;43.568;22.256;2022-10-22T07:48:33;38.92;;;27.75;;
57225;SDS011;43082;43.568;22.256;2022-10-22T07:50:59;37.63;;;25.25;;
57225;SDS011;43082;43.568;22.256;2022-10-22T07:53:25;46.00;;;38.72;;
57225;SDS011;43082;43.568;22.256;2022-10-22T07:55:51;35.22;;;22.13;;
57225;SDS011;43082;43.568;22.256;2022-10-22T07:58:17;31.50;;;14.25;;
57225;SDS011;43082;43.568;22.256;2022-10-22T08:00:43;42.45;;;26.90;;
57225;SDS011;43082;43.568;22.256;2022-10-22T08:03:10;46.55;;;30.05;;
57225;SDS011;43082;43.568;22.256;2022-10-22T08:05:36;58.30;;;37.60;;
57225;SDS011;43082;43.568;22.256;2022-10-22T08:08:03;42.65;;;26.90;;
57225;SDS011;43082;43.568;22.256;2022-10-22T08:10:29;27.70;;;19.67;;
57225;SDS011;43082;43.568;22.256;2022-10-22T08:12:55;26.90;;;18.63;;
57225;SDS011;43082;43.568;22.256;2022-10-22T08:15:21;37.53;;;24.25;;
57225;SDS011;43082;43.568;22.256;2022-10-22T08:17:47;34.03;;;19.27;;
57225;SDS011;43082;43.568;22.256;2022-10-22T08:20:12;23.77;;;14.55;;
57225;SDS011;43082;43.568;22.256;2022-10-22T08:22:38;29.25;;;15.93;;
57225;SDS011;43082;43.568;22.256;2022-10-22T08:25:03;18.63;;;10.82;;
57225;SDS011;43082;43.568;22.256;2022-10-22T08:27:31;17.73;;;11.32;;
57225;SDS011;43082;43.568;22.256;2022-10-22T08:29:56;23.05;;;12.70;;
57225;SDS011;43082;43.568;22.256;2022-10-22T08:32:22;22.70;;;11.05;;
57225;SDS011;43082;43.568;22.256;2022-10-22T08:34:47;16.65;;;10.95;;
57225;SDS011;43082;43.568;22.256;2022-10-22T08:37:13;22.65;;;13.15;;
57225;SDS011;43082;43.568;22.256;2022-10-22T08:39:39;20.50;;;11.60;;
57225;SDS011;43082;43.568;22.256;2022-10-22T08:45:12;15.30;;;9.38;;
57225;SDS011;43082;43.568;22.256;2022-10-22T08:50:11;20.73;;;11.43;;
57225;SDS011;43082;43.568;22.256;2022-10-22T08:52:42;16.27;;;7.80;;
57225;SDS011;43082;43.568;22.256;2022-10-22T08:55:11;31.95;;;19.45;;
57225;SDS011;43082;43.568;22.256;2022-10-22T08:57:40;36.58;;;19.25;;
57225;SDS011;43082;43.568;22.256;2022-10-22T09:02:55;21.02;;;11.27;;
57225;SDS011;43082;43.568;22.256;2022-10-22T09:05:28;11.68;;;6.60;;
57225;SDS011;43082;43.568;22.256;2022-10-22T09:07:57;13.32;;;7.07;;
57225;SDS011;43082;43.568;22.256;2022-10-22T09:10:27;11.60;;;6.63;;
57225;SDS011;43082;43.568;22.256;2022-10-22T09:12:54;14.20;;;9.02;;
57225;SDS011;43082;43.568;22.256;2022-10-22T09:15:20;11.20;;;7.20;;
57225;SDS011;43082;43.568;22.256;2022-10-22T09:18:00;12.68;;;6.63;;
57225;SDS011;43082;43.568;22.256;2022-10-22T09:20:33;10.27;;;5.80;;
57225;SDS011;43082;43.568;22.256;2022-10-22T09:23:27;13.57;;;5.82;;
57225;SDS011;43082;43.568;22.256;2022-10-22T09:25:58;12.05;;;5.78;;
57225;SDS011;43082;43.568;22.256;2022-10-22T09:28:24;16.15;;;7.28;;
57225;SDS011;43082;43.568;22.256;2022-10-22T09:30:49;12.15;;;6.50;;
57225;SDS011;43082;43.568;22.256;2022-10-22T09:33:25;15.10;;;7.30;;
57225;SDS011;43082;43.568;22.256;2022-10-22T09:35:53;10.40;;;5.50;;
57225;SDS011;43082;43.568;22.256;2022-10-22T09:38:25;13.68;;;6.28;;
57225;SDS011;43082;43.568;22.256;2022-10-22T09:40:52;14.05;;;7.57;;
57225;SDS011;43082;43.568;22.256;2022-10-22T09:43:20;13.63;;;6.80;;
57225;SDS011;43082;43.568;22.256;2022-10-22T09:45:46;11.15;;;6.20;;
57225;SDS011;43082;43.568;22.256;2022-10-22T09:48:22;11.48;;;5.93;;
57225;SDS011;43082;43.568;22.256;2022-10-22T09:50:56;11.02;;;6.00;;
57225;SDS011;43082;43.568;22.256;2022-10-22T09:53:36;11.73;;;5.88;;
57225;SDS011;43082;43.568;22.256;2022-10-22T09:56:46;12.45;;;5.72;;
57225;SDS011;43082;43.568;22.256;2022-10-22T09:59:05;9.43;;;5.53;;
57225;SDS011;43082;43.568;22.256;2022-10-22T10:01:40;15.13;;;6.60;;
57225;SDS011;43082;43.568;22.256;2022-10-22T10:04:07;11.68;;;5.50;;
57225;SDS011;43082;43.568;22.256;2022-10-22T10:06:37;11.35;;;5.57;;
57225;SDS011;43082;43.568;22.256;2022-10-22T10:09:25;12.88;;;6.30;;
57225;SDS011;43082;43.568;22.256;2022-10-22T10:25:48;9.85;;;5.60;;
57225;SDS011;43082;43.568;22.256;2022-10-22T10:36:14;10.15;;;4.80;;
57225;SDS011;43082;43.568;22.256;2022-10-22T10:41:22;8.73;;;4.88;;
57225;SDS011;43082;43.568;22.256;2022-10-22T10:44:20;14.88;;;5.72;;
57225;SDS011;43082;43.568;22.256;2022-10-22T10:55:41;12.82;;;5.90;;
57225;SDS011;43082;43.568;22.256;2022-10-22T11:07:13;10.50;;;5.80;;
57225;SDS011;43082;43.568;22.256;2022-10-22T11:09:56;15.25;;;5.55;;
57225;SDS011;43082;43.568;22.256;2022-10-22T11:12:26;10.73;;;5.60;;
57225;SDS011;43082;43.568;22.256;2022-10-22T11:17:39;14.68;;;5.45;;
57225;SDS011;43082;43.568;22.256;2022-10-22T11:20:14;10.70;;;5.35;;
57225;SDS011;43082;43.568;22.256;2022-10-22T11:22:47;11.32;;;5.40;;
57225;SDS011;43082;43.568;22.256;2022-10-22T11:27:53;12.27;;;4.40;;
57225;SDS011;43082;43.568;22.256;2022-10-22T11:30:23;9.82;;;4.85;;
57225;SDS011;43082;43.568;22.256;2022-10-22T11:32:53;10.00;;;4.72;;
57225;SDS011;43082;43.568;22.256;2022-10-22T11:35:21;9.27;;;4.47;;
57225;SDS011;43082;43.568;22.256;2022-10-22T11:37:49;11.45;;;5.43;;
57225;SDS011;43082;43.568;22.256;2022-10-22T11:40:18;12.60;;;7.03;;
57225;SDS011;43082;43.568;22.256;2022-10-22T11:50:23;13.57;;;6.65;;
57225;SDS011;43082;43.568;22.256;2022-10-22T11:52:58;15.35;;;5.85;;
57225;SDS011;43082;43.568;22.256;2022-10-22T11:58:29;10.00;;;4.15;;
57225;SDS011;43082;43.568;22.256;2022-10-22T12:11:20;11.90;;;4.80;;
57225;SDS011;43082;43.568;22.256;2022-10-22T12:16:23;15.45;;;7.03;;
57225;SDS011;43082;43.568;22.256;2022-10-22T12:18:52;13.45;;;6.20;;
57225;SDS011;43082;43.568;22.256;2022-10-22T12:21:21;14.70;;;6.60;;
57225;SDS011;43082;43.568;22.256;2022-10-22T12:23:46;11.15;;;6.18;;
57225;SDS011;43082;43.568;22.256;2022-10-22T12:26:23;13.60;;;7.15;;
57225;SDS011;43082;43.568;22.256;2022-10-22T12:28:55;14.77;;;7.97;;
57225;SDS011;43082;43.568;22.256;2022-10-22T12:31:22;14.80;;;8.55;;
57225;SDS011;43082;43.568;22.256;2022-10-22T12:33:47;10.95;;;4.15;;
57225;SDS011;43082;43.568;22.256;2022-10-22T12:36:16;13.98;;;4.85;;
57225;SDS011;43082;43.568;22.256;2022-10-22T12:38:44;12.00;;;4.80;;
57225;SDS011;43082;43.568;22.256;2022-10-22T12:41:11;9.93;;;5.43;;
57225;SDS011;43082;43.568;22.256;2022-10-22T12:43:37;13.15;;;8.07;;
57225;SDS011;43082;43.568;22.256;2022-10-22T12:46:03;19.77;;;10.13;;
57225;SDS011;43082;43.568;22.256;2022-10-22T12:48:30;12.13;;;5.95;;
57225;SDS011;43082;43.568;22.256;2022-10-22T12:50:59;14.57;;;6.75;;
57225;SDS011;43082;43.568;22.256;2022-10-22T12:53:32;15.38;;;7.45;;
57225;SDS011;43082;43.568;22.256;2022-10-22T12:56:03;17.38;;;8.15;;
57225;SDS011;43082;43.568;22.256;2022-10-22T12:58:41;16.63;;;10.93;;
57225;SDS011;43082;43.568;22.256;2022-10-22T13:01:10;20.20;;;12.23;;
57225;SDS011;43082;43.568;22.256;2022-10-22T13:03:49;22.10;;;12.80;;
57225;SDS011;43082;43.568;22.256;2022-10-22T13:06:26;16.75;;;9.52;;
57225;SDS011;43082;43.568;22.256;2022-10-22T13:11:20;20.05;;;7.38;;
57225;SDS011;43082;43.568;22.256;2022-10-22T13:13:46;13.35;;;5.43;;
57225;SDS011;43082;43.568;22.256;2022-10-22T13:16:14;9.55;;;4.85;;
57225;SDS011;43082;43.568;22.256;2022-10-22T13:18:45;12.15;;;5.40;;
57225;SDS011;43082;43.568;22.256;2022-10-22T13:24:00;17.13;;;5.30;;
57225;SDS011;43082;43.568;22.256;2022-10-22T13:26:34;15.15;;;6.28;;
57225;SDS011;43082;43.568;22.256;2022-10-22T13:29:00;12.90;;;6.70;;
57225;SDS011;43082;43.568;22.256;2022-10-22T13:31:29;13.57;;;6.22;;
57225;SDS011;43082;43.568;22.256;2022-10-22T13:34:15;15.80;;;7.70;;
57225;SDS011;43082;43.568;22.256;2022-10-22T13:36:42;14.15;;;7.07;;
57225;SDS011;43082;43.568;22.256;2022-10-22T13:41:49;12.07;;;5.95;;
57225;SDS011;43082;43.568;22.256;2022-10-22T13:44:15;15.15;;;6.32;;
57225;SDS011;43082;43.568;22.256;2022-10-22T13:46:44;14.90;;;5.72;;
57225;SDS011;43082;43.568;22.256;2022-10-22T13:49:14;12.02;;;5.82;;
57225;SDS011;43082;43.568;22.256;2022-10-22T13:51:42;15.52;;;7.47;;
57225;SDS011;43082;43.568;22.256;2022-10-22T13:54:14;13.27;;;6.20;;
57225;SDS011;43082;43.568;22.256;2022-10-22T13:56:41;33.30;;;12.63;;
57225;SDS011;43082;43.568;22.256;2022-10-22T13:59:08;23.20;;;11.57;;
57225;SDS011;43082;43.568;22.256;2022-10-22T14:01:33;22.35;;;11.32;;
57225;SDS011;43082;43.568;22.256;2022-10-22T14:04:00;18.30;;;7.88;;
57225;SDS011;43082;43.568;22.256;2022-10-22T14:06:29;24.45;;;13.15;;
57225;SDS011;43082;43.568;22.256;2022-10-22T14:08:59;13.18;;;6.05;;
57225;SDS011;43082;43.568;22.256;2022-10-22T14:11:27;16.15;;;7.32;;
57225;SDS011;43082;43.568;22.256;2022-10-22T14:13:54;24.05;;;8.48;;
57225;SDS011;43082;43.568;22.256;2022-10-22T14:16:20;18.83;;;9.15;;
57225;SDS011;43082;43.568;22.256;2022-10-22T14:18:47;15.68;;;7.45;;
57225;SDS011;43082;43.568;22.256;2022-10-22T14:21:13;19.60;;;11.50;;
57225;SDS011;43082;43.568;22.256;2022-10-22T14:23:39;13.82;;;7.13;;
57225;SDS011;43082;43.568;22.256;2022-10-22T14:26:05;17.65;;;6.78;;
57225;SDS011;43082;43.568;22.256;2022-10-22T14:28:32;18.88;;;8.15;;
57225;SDS011;43082;43.568;22.256;2022-10-22T14:30:58;19.48;;;8.63;;
57225;SDS011;43082;43.568;22.256;2022-10-22T14:33:25;26.42;;;12.60;;
57225;SDS011;43082;43.568;22.256;2022-10-22T14:35:52;20.70;;;11.25;;
57225;SDS011;43082;43.568;22.256;2022-10-22T14:38:18;22.70;;;11.57;;
57225;SDS011;43082;43.568;22.256;2022-10-22T14:40:43;29.17;;;16.73;;
57225;SDS011;43082;43.568;22.256;2022-10-22T14:43:13;29.92;;;16.90;;
57225;SDS011;43082;43.568;22.256;2022-10-22T14:45:43;23.50;;;15.77;;
57225;SDS011;43082;43.568;22.256;2022-10-22T14:48:08;21.70;;;11.68;;
57225;SDS011;43082;43.568;22.256;2022-10-22T14:50:33;24.98;;;13.88;;
57225;SDS011;43082;43.568;22.256;2022-10-22T14:52:59;27.85;;;14.15;;
57225;SDS011;43082;43.568;22.256;2022-10-22T14:55:24;24.92;;;12.45;;
57225;SDS011;43082;43.568;22.256;2022-10-22T14:57:51;45.33;;;22.83;;
57225;SDS011;43082;43.568;22.256;2022-10-22T15:00:17;59.03;;;32.80;;
57225;SDS011;43082;43.568;22.256;2022-10-22T15:02:44;42.85;;;25.52;;
57225;SDS011;43082;43.568;22.256;2022-10-22T15:05:10;37.17;;;24.42;;
57225;SDS011;43082;43.568;22.256;2022-10-22T15:07:35;49.33;;;29.42;;
57225;SDS011;43082;43.568;22.256;2022-10-22T15:10:02;50.05;;;29.65;;
57225;SDS011;43082;43.568;22.256;2022-10-22T15:12:28;33.65;;;17.25;;
57225;SDS011;43082;43.568;22.256;2022-10-22T15:14:54;37.17;;;22.20;;
57225;SDS011;43082;43.568;22.256;2022-10-22T15:17:19;42.90;;;25.60;;
57225;SDS011;43082;43.568;22.256;2022-10-22T15:19:44;46.03;;;27.20;;
57225;SDS011;43082;43.568;22.256;2022-10-22T15:22:10;46.17;;;25.48;;
57225;SDS011;43082;43.568;22.256;2022-10-22T15:24:37;69.43;;;32.17;;
57225;SDS011;43082;43.568;22.256;2022-10-22T15:27:02;33.17;;;20.55;;
57225;SDS011;43082;43.568;22.256;2022-10-22T15:29:28;26.85;;;14.30;;
57225;SDS011;43082;43.568;22.256;2022-10-22T15:31:55;27.15;;;16.20;;
57225;SDS011;43082;43.568;22.256;2022-10-22T15:34:26;29.40;;;17.98;;
57225;SDS011;43082;43.568;22.256;2022-10-22T15:36:53;39.47;;;28.42;;
57225;SDS011;43082;43.568;22.256;2022-10-22T15:39:20;60.88;;;41.92;;
57225;SDS011;43082;43.568;22.256;2022-10-22T15:41:46;26.13;;;16.95;;
57225;SDS011;43082;43.568;22.256;2022-10-22T15:44:17;55.55;;;34.15;;
57225;SDS011;43082;43.568;22.256;2022-10-22T15:46:46;28.15;;;15.65;;
57225;SDS011;43082;43.568;22.256;2022-10-22T15:49:12;88.03;;;54.03;;
57225;SDS011;43082;43.568;22.256;2022-10-22T15:51:38;34.10;;;21.67;;
57225;SDS011;43082;43.568;22.256;2022-10-22T15:54:04;28.48;;;17.30;;
57225;SDS011;43082;43.568;22.256;2022-10-22T15:56:29;39.00;;;24.45;;
57225;SDS011;43082;43.568;22.256;2022-10-22T15:58:56;47.30;;;28.85;;
57225;SDS011;43082;43.568;22.256;2022-10-22T16:01:23;46.22;;;27.88;;
57225;SDS011;43082;43.568;22.256;2022-10-22T16:03:50;40.97;;;21.70;;
57225;SDS011;43082;43.568;22.256;2022-10-22T16:06:17;27.95;;;15.50;;
57225;SDS011;43082;43.568;22.256;2022-10-22T16:08:43;46.15;;;27.67;;
57225;SDS011;43082;43.568;22.256;2022-10-22T16:11:09;37.80;;;24.15;;
57225;SDS011;43082;43.568;22.256;2022-10-22T16:13:34;44.55;;;28.45;;
57225;SDS011;43082;43.568;22.256;2022-10-22T16:16:03;109.35;;;71.13;;
57225;SDS011;43082;43.568;22.256;2022-10-22T16:18:31;88.63;;;58.03;;
57225;SDS011;43082;43.568;22.256;2022-10-22T16:20:56;99.30;;;63.55;;
57225;SDS011;43082;43.568;22.256;2022-10-22T16:23:22;91.57;;;56.20;;
57225;SDS011;43082;43.568;22.256;2022-10-22T16:25:48;121.80;;;87.30;;
57225;SDS011;43082;43.568;22.256;2022-10-22T16:28:13;115.25;;;80.10;;